Time;durP1;ratioP1;P1;durP2;ratioP2;P2;SDS_P1;SDS_P2;PMS_P1;PMS_P2;Temp;Humidity;BMP_temperature;BMP_pressure;BME280_temperature;BME280_humidity;BME280_pressure;Samples;Min_cycle;Max_cycle;Signal;HPM_P1;HPM_P2
2023/08/31 00:02:03;;;;;;;15.02;3.60;;;11.20;99.90;;;;;;5067437;28;20074;-65
2023/08/31 00:04:29;;;;;;;8.75;3.60;;;11.20;99.90;;;;;;5090044;28;20056;-66
2023/08/31 00:06:56;;;;;;;10.65;3.65;;;11.20;99.90;;;;;;5046182;28;20102;-67
2023/08/31 00:09:23;;;;;;;9.05;3.90;;;11.20;99.90;;;;;;5046700;28;20388;-68
2023/08/31 00:11:49;;;;;;;14.48;4.35;;;11.20;99.90;;;;;;5029112;28;20082;-68
2023/08/31 00:14:15;;;;;;;9.82;3.80;;;11.20;99.90;;;;;;5046880;28;20099;-67
2023/08/31 00:16:41;;;;;;;9.90;4.05;;;11.20;99.90;;;;;;5047888;28;20543;-67
2023/08/31 00:19:06;;;;;;;11.32;3.53;;;11.20;99.90;;;;;;5046432;28;20045;-67
2023/08/31 00:21:32;;;;;;;7.10;2.97;;;11.20;99.90;;;;;;5046982;28;20151;-68
2023/08/31 00:23:59;;;;;;;8.93;4.00;;;11.20;99.90;;;;;;5066766;28;20087;-67
2023/08/31 00:26:24;;;;;;;10.55;3.25;;;11.20;99.90;;;;;;5065449;28;20589;-69
2023/08/31 00:28:50;;;;;;;11.05;3.63;;;11.20;99.90;;;;;;5050397;28;20079;-66
2023/08/31 00:31:16;;;;;;;9.98;3.05;;;11.10;99.90;;;;;;5032313;28;20583;-65
2023/08/31 00:33:41;;;;;;;8.95;3.00;;;11.10;99.90;;;;;;5026270;28;20042;-68
2023/08/31 00:36:07;;;;;;;7.53;2.88;;;11.10;99.90;;;;;;5037466;28;20052;-70
2023/08/31 00:38:33;;;;;;;9.63;3.20;;;11.10;99.90;;;;;;5063934;28;20364;-69
2023/08/31 00:40:59;;;;;;;8.20;2.55;;;11.10;99.90;;;;;;5065271;28;20040;-67
2023/08/31 00:43:24;;;;;;;8.23;2.42;;;11.10;99.90;;;;;;5067413;28;20056;-68
2023/08/31 00:45:54;;;;;;;13.02;3.03;;;11.10;99.90;;;;;;5066375;28;20149;-68
2023/08/31 00:48:20;;;;;;;6.30;2.22;;;11.10;99.90;;;;;;5079988;28;20037;-69
2023/08/31 00:50:46;;;;;;;7.88;2.33;;;11.10;99.90;;;;;;5035327;28;20425;-68
2023/08/31 00:53:16;;;;;;;7.68;2.10;;;11.10;99.90;;;;;;5061613;28;20086;-72
2023/08/31 00:55:43;;;;;;;8.55;2.28;;;11.10;99.90;;;;;;5056772;28;20072;-68
2023/08/31 00:58:08;;;;;;;9.02;2.22;;;11.10;99.90;;;;;;5067407;28;20340;-69
2023/08/31 01:00:50;;;;;;;7.43;2.40;;;11.10;99.90;;;;;;5063753;28;20045;-69
2023/08/31 01:03:53;;;;;;;7.60;2.08;;;11.10;99.90;;;;;;5049350;28;20049;-68
2023/08/31 01:06:34;;;;;;;7.55;2.10;;;11.10;99.90;;;;;;5042819;28;20044;-67
2023/08/31 01:09:18;;;;;;;8.30;2.20;;;11.10;99.90;;;;;;5027792;28;20044;-69
2023/08/31 01:11:49;;;;;;;10.88;2.40;;;11.10;99.90;;;;;;5025446;28;20447;-71
2023/08/31 01:14:19;;;;;;;9.32;2.10;;;11.10;99.90;;;;;;5009791;28;20044;-69
2023/08/31 01:16:48;;;;;;;9.57;2.50;;;11.00;99.90;;;;;;5033410;28;20036;-70
2023/08/31 01:19:34;;;;;;;8.38;2.42;;;11.10;99.90;;;;;;5045292;28;20118;-69
2023/08/31 01:22:05;;;;;;;9.98;2.70;;;11.10;99.90;;;;;;5046422;28;20075;-69
2023/08/31 01:24:31;;;;;;;7.25;2.40;;;11.10;99.90;;;;;;5045664;28;20942;-69
2023/08/31 01:26:57;;;;;;;8.38;2.10;;;11.00;99.90;;;;;;5045271;28;20080;-69
2023/08/31 01:29:23;;;;;;;10.32;2.40;;;11.00;99.90;;;;;;5042609;28;20721;-70
2023/08/31 01:31:48;;;;;;;8.35;2.47;;;11.00;99.90;;;;;;5026791;28;20045;-70
2023/08/31 01:34:14;;;;;;;4.65;2.10;;;11.00;99.90;;;;;;5008695;28;20488;-69
2023/08/31 01:36:45;;;;;;;7.13;1.98;;;11.00;99.90;;;;;;5037598;28;20519;-69
2023/08/31 01:39:21;;;;;;;9.63;2.50;;;11.00;99.90;;;;;;5048399;28;20040;-70
2023/08/31 01:41:52;;;;;;;7.28;2.80;;;10.90;99.90;;;;;;5062591;28;20504;-70
2023/08/31 01:44:19;;;;;;;10.80;2.38;;;10.90;99.90;;;;;;5045344;28;20048;-70
2023/08/31 01:46:54;;;;;;;8.90;2.85;;;10.90;99.90;;;;;;5045306;28;20548;-70
2023/08/31 01:49:20;;;;;;;10.38;2.70;;;10.80;99.90;;;;;;5097587;28;20072;-70
2023/08/31 01:51:46;;;;;;;9.18;2.38;;;10.70;99.90;;;;;;5061396;28;20041;-69
2023/08/31 01:54:12;;;;;;;6.32;2.40;;;10.70;99.90;;;;;;5065499;28;20075;-70
2023/08/31 01:56:38;;;;;;;6.82;2.70;;;10.70;99.90;;;;;;5062352;28;20040;-70
2023/08/31 01:59:03;;;;;;;14.35;2.90;;;10.60;99.90;;;;;;5055907;28;20864;-70
2023/08/31 02:01:29;;;;;;;7.00;2.83;;;10.60;99.90;;;;;;5064832;28;20044;-70
2023/08/31 02:03:55;;;;;;;10.15;2.70;;;10.60;99.90;;;;;;5048200;28;20063;-69
2023/08/31 02:06:20;;;;;;;5.88;2.65;;;10.60;99.90;;;;;;5044096;28;20047;-70
2023/08/31 02:08:47;;;;;;;8.35;3.03;;;10.50;99.90;;;;;;5046598;28;20044;-70
2023/08/31 02:11:13;;;;;;;7.70;2.95;;;10.50;99.90;;;;;;5045127;28;20056;-70
2023/08/31 02:13:39;;;;;;;8.10;2.78;;;10.40;99.90;;;;;;5046085;28;20060;-70
2023/08/31 02:16:05;;;;;;;11.02;2.97;;;10.40;99.90;;;;;;5058774;28;20601;-70
2023/08/31 02:18:30;;;;;;;8.07;2.63;;;10.30;99.90;;;;;;5051189;28;20168;-70
2023/08/31 02:20:57;;;;;;;6.15;2.35;;;10.30;99.90;;;;;;5028770;28;20041;-70
2023/08/31 02:23:22;;;;;;;7.47;2.72;;;10.20;99.90;;;;;;5044296;28;20099;-70
2023/08/31 02:25:48;;;;;;;7.90;2.55;;;10.10;99.90;;;;;;5063874;28;20123;-70
2023/08/31 02:28:14;;;;;;;7.90;2.75;;;10.10;99.90;;;;;;5065372;28;20052;-69
2023/08/31 02:30:39;;;;;;;8.50;2.60;;;10.00;99.90;;;;;;5051964;28;20051;-69
2023/08/31 02:33:05;;;;;;;11.75;2.67;;;9.90;99.90;;;;;;5027734;28;20472;-70
2023/08/31 02:35:30;;;;;;;8.75;2.72;;;9.80;99.90;;;;;;5077345;28;20037;-70
2023/08/31 02:37:56;;;;;;;8.68;2.85;;;9.70;99.90;;;;;;5039368;28;20035;-69
2023/08/31 02:40:22;;;;;;;9.65;2.90;;;9.60;99.90;;;;;;5063339;28;20468;-70
2023/08/31 02:42:51;;;;;;;15.60;3.60;;;9.60;99.90;;;;;;5063738;28;20119;-69
2023/08/31 02:45:17;;;;;;;8.77;3.55;;;9.60;99.90;;;;;;5065117;28;20041;-69
2023/08/31 02:47:43;;;;;;;14.57;4.13;;;9.60;99.90;;;;;;5042122;28;20068;-69
2023/08/31 02:50:09;;;;;;;9.90;3.22;;;9.60;99.90;;;;;;5064876;28;20119;-69
2023/08/31 02:52:34;;;;;;;18.02;4.18;;;9.60;99.90;;;;;;5044304;28;20045;-69
2023/08/31 02:55:00;;;;;;;8.88;2.88;;;9.70;99.90;;;;;;5063563;28;20495;-68
2023/08/31 02:57:25;;;;;;;7.72;2.65;;;9.70;99.90;;;;;;5063498;28;20048;-69
2023/08/31 02:59:51;;;;;;;9.10;3.92;;;9.70;99.90;;;;;;5055000;28;20048;-70
2023/08/31 03:02:17;;;;;;;10.88;3.10;;;9.70;99.90;;;;;;5045022;28;20041;-69
2023/08/31 03:04:42;;;;;;;9.98;2.97;;;9.70;99.90;;;;;;5043369;28;20618;-69
2023/08/31 03:07:08;;;;;;;9.07;3.22;;;9.70;99.90;;;;;;5049968;28;20464;-69
2023/08/31 03:09:33;;;;;;;8.00;3.60;;;9.70;99.90;;;;;;5063045;28;20044;-69
2023/08/31 03:11:59;;;;;;;11.07;3.08;;;9.70;99.90;;;;;;5062428;28;20052;-69
2023/08/31 03:14:25;;;;;;;7.70;3.17;;;9.70;99.90;;;;;;5046124;28;20407;-69
2023/08/31 03:16:51;;;;;;;8.52;3.13;;;9.80;99.90;;;;;;5043537;28;20063;-69
2023/08/31 03:19:16;;;;;;;10.85;3.22;;;9.70;99.90;;;;;;5043079;28;20045;-69
2023/08/31 03:21:42;;;;;;;7.78;3.38;;;9.70;99.90;;;;;;5042943;28;20092;-69
2023/08/31 03:24:08;;;;;;;9.60;3.17;;;9.70;99.90;;;;;;5077555;28;20094;-69
2023/08/31 03:26:33;;;;;;;9.48;3.25;;;9.70;99.90;;;;;;5025826;28;20060;-69
2023/08/31 03:28:59;;;;;;;9.00;3.10;;;9.70;99.90;;;;;;5043245;28;20508;-69
2023/08/31 03:31:25;;;;;;;10.05;3.60;;;9.70;99.90;;;;;;5028325;28;20068;-69
2023/08/31 03:33:51;;;;;;;11.05;4.10;;;9.70;99.90;;;;;;5063206;28;20170;-68
2023/08/31 03:36:16;;;;;;;8.05;2.80;;;9.70;99.90;;;;;;5061818;28;20036;-69
2023/08/31 03:38:42;;;;;;;7.60;2.78;;;9.60;99.90;;;;;;5044204;28;20048;-69
2023/08/31 03:41:07;;;;;;;7.78;3.50;;;9.60;99.90;;;;;;5050250;28;20036;-70
2023/08/31 03:43:33;;;;;;;11.30;3.40;;;9.60;99.90;;;;;;5063264;28;20052;-69
2023/08/31 03:46:00;;;;;;;11.32;4.07;;;9.60;99.90;;;;;;5063556;28;20053;-68
2023/08/31 03:48:26;;;;;;;13.07;3.83;;;9.70;99.90;;;;;;5046005;28;20037;-69
2023/08/31 03:50:54;;;;;;;9.27;4.20;;;9.70;99.90;;;;;;5047856;28;20054;-67
2023/08/31 03:53:19;;;;;;;12.38;4.05;;;9.80;99.90;;;;;;5061203;28;20048;-69
2023/08/31 03:55:45;;;;;;;7.95;4.00;;;9.80;99.90;;;;;;5064119;28;20094;-68
2023/08/31 03:58:11;;;;;;;9.45;4.47;;;9.90;99.90;;;;;;5062715;28;20048;-68
2023/08/31 04:00:38;;;;;;;11.20;4.40;;;9.90;99.90;;;;;;5046365;28;20090;-69
2023/08/31 04:03:04;;;;;;;14.30;4.97;;;10.00;99.90;;;;;;5062587;28;20159;-70
2023/08/31 04:05:34;;;;;;;11.73;4.43;;;10.10;99.90;;;;;;5054628;28;20768;-68
2023/08/31 04:08:00;;;;;;;8.95;4.63;;;10.10;99.90;;;;;;5047581;28;20053;-68
2023/08/31 04:10:26;;;;;;;8.68;4.45;;;10.20;99.90;;;;;;5075603;28;20041;-71
2023/08/31 04:12:52;;;;;;;11.38;4.75;;;10.20;99.90;;;;;;5076277;28;20087;-65
2023/08/31 04:15:17;;;;;;;8.45;3.80;;;10.20;99.90;;;;;;5043199;28;20033;-67
2023/08/31 04:17:43;;;;;;;10.27;4.10;;;10.30;99.90;;;;;;5042666;28;20412;-69
2023/08/31 04:20:10;;;;;;;13.38;4.90;;;10.30;99.90;;;;;;5052943;28;20044;-67
2023/08/31 04:22:36;;;;;;;11.95;4.85;;;10.30;99.90;;;;;;5060177;28;20036;-67
2023/08/31 04:25:02;;;;;;;10.10;4.45;;;10.30;99.90;;;;;;5067614;28;20050;-68
2023/08/31 04:27:29;;;;;;;10.15;4.93;;;10.40;99.90;;;;;;5066201;28;20439;-68
2023/08/31 04:29:55;;;;;;;12.68;4.90;;;10.40;99.90;;;;;;5058211;28;20033;-71
2023/08/31 04:32:20;;;;;;;12.90;5.35;;;10.40;99.90;;;;;;5029564;28;20067;-69
2023/08/31 04:34:46;;;;;;;9.30;4.85;;;10.40;99.90;;;;;;5048085;28;20476;-68
2023/08/31 04:37:12;;;;;;;16.25;5.32;;;10.40;99.90;;;;;;5047451;28;20086;-64
2023/08/31 04:39:37;;;;;;;13.35;5.22;;;10.40;99.90;;;;;;5045640;28;20045;-70
2023/08/31 04:42:03;;;;;;;10.57;5.50;;;10.40;99.90;;;;;;5029507;28;20131;-67
2023/08/31 04:44:28;;;;;;;11.57;6.75;;;10.40;99.90;;;;;;5046473;28;20059;-67
2023/08/31 04:46:54;;;;;;;11.52;6.07;;;10.40;99.90;;;;;;5046964;28;20047;-66
2023/08/31 04:49:20;;;;;;;15.13;6.47;;;10.50;99.90;;;;;;5046024;28;20473;-68
2023/08/31 04:51:46;;;;;;;14.70;7.15;;;10.50;99.90;;;;;;5049157;28;20044;-69
2023/08/31 04:54:11;;;;;;;13.52;7.20;;;10.50;99.90;;;;;;5066252;28;20043;-68
2023/08/31 04:56:37;;;;;;;15.65;8.55;;;10.50;99.90;;;;;;5048543;28;20037;-71
2023/08/31 04:59:03;;;;;;;15.07;8.18;;;10.50;99.90;;;;;;5063928;28;20073;-66
2023/08/31 05:01:28;;;;;;;17.27;8.07;;;10.60;99.90;;;;;;5066588;28;20165;-68
2023/08/31 05:03:54;;;;;;;22.88;9.05;;;10.60;99.90;;;;;;5056387;28;20061;-69
2023/08/31 05:06:20;;;;;;;15.90;9.30;;;10.60;99.90;;;;;;5046562;28;20078;-68
2023/08/31 05:08:47;;;;;;;16.20;9.57;;;10.70;99.90;;;;;;5057034;28;20033;-67
2023/08/31 05:11:13;;;;;;;19.60;10.18;;;10.70;99.90;;;;;;5065171;28;20036;-64
2023/08/31 05:13:41;;;;;;;17.88;9.35;;;10.80;99.90;;;;;;5066939;28;20043;-67
2023/08/31 05:16:07;;;;;;;23.00;9.93;;;10.90;99.90;;;;;;5052791;28;20337;-65
2023/08/31 05:18:33;;;;;;;20.25;10.73;;;11.00;99.90;;;;;;5028906;28;20107;-67
2023/08/31 05:20:59;;;;;;;24.45;10.43;;;11.00;99.90;;;;;;5028750;28;20076;-65
2023/08/31 05:23:24;;;;;;;16.02;9.43;;;11.00;99.90;;;;;;5060793;28;20407;-63
2023/08/31 05:25:50;;;;;;;15.73;9.63;;;11.10;99.90;;;;;;5065015;28;20033;-67
2023/08/31 05:28:15;;;;;;;16.48;9.27;;;11.20;99.90;;;;;;5065258;28;20032;-64
2023/08/31 05:30:55;;;;;;;18.80;9.65;;;11.30;99.90;;;;;;5055796;28;20168;-63
2023/08/31 05:33:22;;;;;;;16.50;7.97;;;11.30;99.90;;;;;;5048707;28;20081;-64
2023/08/31 05:35:48;;;;;;;11.98;7.65;;;11.50;99.90;;;;;;5066043;28;20712;-65
2023/08/31 05:38:14;;;;;;;14.40;7.68;;;11.60;99.90;;;;;;5062141;28;20128;-64
2023/08/31 05:40:45;;;;;;;15.32;7.30;;;11.70;99.90;;;;;;5064530;28;20199;-64
2023/08/31 05:43:11;;;;;;;11.85;6.90;;;11.90;99.90;;;;;;5066293;28;20052;-68
2023/08/31 05:45:36;;;;;;;15.85;7.15;;;12.00;99.90;;;;;;5054596;28;20036;-65
2023/08/31 05:48:02;;;;;;;14.48;6.72;;;12.20;99.90;;;;;;5045001;28;20101;-64
2023/08/31 05:50:28;;;;;;;12.57;6.45;;;12.30;99.90;;;;;;5044621;28;20347;-66
2023/08/31 05:52:54;;;;;;;10.40;6.07;;;12.40;99.90;;;;;;5045313;28;20033;-67
2023/08/31 05:55:20;;;;;;;12.68;5.35;;;12.50;99.90;;;;;;5045725;28;20378;-66
2023/08/31 05:57:45;;;;;;;11.20;5.05;;;12.60;99.90;;;;;;5045996;28;20040;-64
2023/08/31 06:00:12;;;;;;;11.98;4.88;;;12.70;99.90;;;;;;5078217;28;20044;-66
2023/08/31 06:02:37;;;;;;;11.90;5.45;;;12.70;99.90;;;;;;5044544;28;20171;-64
2023/08/31 06:05:04;;;;;;;11.45;5.05;;;12.80;99.90;;;;;;5046159;28;20143;-65
2023/08/31 06:07:29;;;;;;;11.60;5.63;;;12.90;99.90;;;;;;5052084;28;20052;-63
2023/08/31 06:09:56;;;;;;;9.48;4.50;;;13.00;99.90;;;;;;5043455;28;20049;-62
2023/08/31 06:12:22;;;;;;;10.60;4.30;;;13.10;99.90;;;;;;5043879;28;20037;-64
2023/08/31 06:14:47;;;;;;;8.68;3.78;;;13.10;99.90;;;;;;5033189;28;20035;-66
2023/08/31 06:17:13;;;;;;;10.45;4.20;;;13.30;99.90;;;;;;5052294;28;20041;-66
2023/08/31 06:19:39;;;;;;;12.50;4.22;;;13.40;99.90;;;;;;5053776;28;20433;-61
2023/08/31 06:22:05;;;;;;;11.27;4.10;;;13.40;99.90;;;;;;5044401;28;20036;-65
2023/08/31 06:24:32;;;;;;;11.02;3.80;;;13.50;99.90;;;;;;5049730;28;20051;-65
2023/08/31 06:26:58;;;;;;;10.65;4.10;;;13.50;99.90;;;;;;5047900;28;20064;-65
2023/08/31 06:29:23;;;;;;;9.80;4.53;;;13.50;99.90;;;;;;5074159;28;20423;-64
2023/08/31 06:31:49;;;;;;;8.52;3.55;;;13.60;99.90;;;;;;5042554;28;20083;-66
2023/08/31 06:34:14;;;;;;;10.48;3.65;;;13.60;99.90;;;;;;5047786;28;20429;-63
2023/08/31 06:36:40;;;;;;;11.80;3.92;;;13.60;99.90;;;;;;5037844;28;20424;-63
2023/08/31 06:39:08;;;;;;;13.18;4.22;;;13.70;99.90;;;;;;5064065;28;20040;-64
2023/08/31 06:41:34;;;;;;;7.10;3.13;;;13.80;99.90;;;;;;5096771;28;20049;-65
2023/08/31 06:44:00;;;;;;;9.90;2.95;;;13.90;99.90;;;;;;5064001;28;20086;-65
2023/08/31 06:46:25;;;;;;;9.63;3.13;;;13.90;99.90;;;;;;5048570;28;20163;-64
2023/08/31 06:48:51;;;;;;;7.63;2.95;;;14.00;99.90;;;;;;5027289;28;20529;-65
2023/08/31 06:51:17;;;;;;;9.40;2.83;;;14.10;99.90;;;;;;5030578;28;20036;-64
2023/08/31 06:53:43;;;;;;;9.73;3.00;;;14.20;99.90;;;;;;5063227;28;20139;-63
2023/08/31 06:56:09;;;;;;;7.00;2.45;;;14.30;99.90;;;;;;5055734;28;20037;-63
2023/08/31 06:58:35;;;;;;;12.40;2.47;;;14.50;99.90;;;;;;5043504;28;20049;-64
2023/08/31 07:01:01;;;;;;;7.30;2.13;;;14.50;99.90;;;;;;5041844;28;20037;-63
2023/08/31 07:03:27;;;;;;;11.27;2.30;;;14.60;99.90;;;;;;5054463;28;20526;-62
2023/08/31 07:05:52;;;;;;;8.20;1.77;;;14.60;99.90;;;;;;5043576;28;20131;-65
2023/08/31 07:08:18;;;;;;;7.75;2.25;;;14.70;99.90;;;;;;5043440;28;20044;-64
2023/08/31 07:10:43;;;;;;;7.93;2.03;;;14.70;99.90;;;;;;5042779;28;20286;-66
2023/08/31 07:13:09;;;;;;;5.75;1.70;;;14.80;99.90;;;;;;5037922;28;20041;-62
2023/08/31 07:15:35;;;;;;;6.88;1.85;;;14.80;99.90;;;;;;5065200;28;20096;-64
2023/08/31 07:18:01;;;;;;;6.55;2.40;;;14.80;99.90;;;;;;5045337;28;20608;-65
2023/08/31 07:20:26;;;;;;;7.22;2.00;;;14.90;99.90;;;;;;5064884;28;20044;-61
2023/08/31 07:22:52;;;;;;;8.45;1.48;;;14.90;99.90;;;;;;5060878;28;20040;-62
2023/08/31 07:25:18;;;;;;;11.02;2.35;;;14.90;99.90;;;;;;5045552;28;20509;-64
2023/08/31 07:27:43;;;;;;;7.03;1.90;;;14.90;99.90;;;;;;5062583;28;20052;-64
2023/08/31 07:30:10;;;;;;;7.15;1.60;;;15.00;99.90;;;;;;5052129;28;20116;-65
2023/08/31 07:32:35;;;;;;;10.18;2.03;;;15.10;99.90;;;;;;5055294;28;20482;-64
2023/08/31 07:35:04;;;;;;;7.78;1.83;;;15.10;99.90;;;;;;5063899;28;20040;-65
2023/08/31 07:37:30;;;;;;;6.45;1.70;;;15.30;99.90;;;;;;5062033;28;20041;-65
2023/08/31 07:39:55;;;;;;;8.70;1.40;;;15.30;99.90;;;;;;5063957;28;20044;-68
2023/08/31 07:42:21;;;;;;;6.35;1.20;;;15.40;99.90;;;;;;5063321;28;20048;-63
2023/08/31 07:44:46;;;;;;;9.55;1.77;;;15.50;99.90;;;;;;5045703;28;20041;-64
2023/08/31 07:47:12;;;;;;;11.52;1.38;;;15.50;99.90;;;;;;5043548;28;20103;-67
2023/08/31 07:49:38;;;;;;;7.50;1.30;;;15.50;99.90;;;;;;5017409;28;20606;-66
2023/08/31 07:52:03;;;;;;;6.30;1.20;;;15.50;99.90;;;;;;5053679;28;20580;-66
2023/08/31 07:54:29;;;;;;;6.50;1.42;;;15.60;99.90;;;;;;5063531;28;20488;-66
2023/08/31 07:56:55;;;;;;;8.95;1.83;;;15.60;99.90;;;;;;5062273;28;20051;-65
2023/08/31 07:59:20;;;;;;;6.15;1.42;;;15.70;99.90;;;;;;5061342;28;20087;-66
2023/08/31 08:01:47;;;;;;;7.07;1.33;;;15.80;99.90;;;;;;5047121;28;20329;-64
2023/08/31 08:04:12;;;;;;;6.25;1.13;;;15.80;99.90;;;;;;5046019;28;20072;-64
2023/08/31 08:06:39;;;;;;;6.65;1.58;;;15.90;99.90;;;;;;5046321;28;20037;-64
2023/08/31 08:09:05;;;;;;;8.23;1.30;;;16.00;99.90;;;;;;5048207;28;20040;-64
2023/08/31 08:11:31;;;;;;;6.72;1.20;;;16.20;99.90;;;;;;5046263;28;20044;-64
2023/08/31 08:13:57;;;;;;;7.88;1.20;;;16.30;99.90;;;;;;5068483;28;20431;-63
2023/08/31 08:16:23;;;;;;;3.50;0.90;;;16.40;99.90;;;;;;5067220;28;20044;-66
2023/08/31 08:18:50;;;;;;;6.78;1.00;;;16.60;99.90;;;;;;5067339;28;20036;-63
2023/08/31 08:21:15;;;;;;;5.38;0.98;;;16.90;99.90;;;;;;5066528;28;20048;-65
2023/08/31 08:23:41;;;;;;;5.38;1.10;;;17.10;99.90;;;;;;5064223;28;20083;-65
2023/08/31 08:26:06;;;;;;;5.68;1.00;;;17.30;99.90;;;;;;5066865;28;20517;-63
2023/08/31 08:28:32;;;;;;;5.68;1.05;;;17.40;99.90;;;;;;5067072;28;20036;-66
2023/08/31 08:31:03;;;;;;;5.65;1.00;;;17.50;99.90;;;;;;5037633;28;20382;-68
2023/08/31 08:33:29;;;;;;;5.60;1.10;;;17.50;99.90;;;;;;5042989;28;20123;-66
2023/08/31 08:35:56;;;;;;;4.78;1.05;;;17.30;99.90;;;;;;5010012;28;20426;-66
2023/08/31 08:38:22;;;;;;;3.78;1.05;;;17.70;99.90;;;;;;5045192;28;20040;-65
2023/08/31 08:40:48;;;;;;;5.25;1.10;;;17.80;99.90;;;;;;5046844;28;20025;-67
2023/08/31 08:43:14;;;;;;;6.03;1.00;;;17.80;99.90;;;;;;5045541;28;20041;-66
2023/08/31 08:45:42;;;;;;;6.55;1.25;;;17.50;99.90;;;;;;5046656;28;20127;-63
2023/08/31 08:48:08;;;;;;;5.63;1.15;;;17.20;99.90;;;;;;5045078;28;20083;-68
2023/08/31 08:50:36;;;;;;;5.43;1.40;;;16.90;99.90;;;;;;5045954;28;20142;-67
2023/08/31 08:53:03;;;;;;;5.20;1.08;;;16.90;99.90;;;;;;5062309;28;20040;-65
2023/08/31 08:55:28;;;;;;;5.28;1.58;;;16.80;99.90;;;;;;5028624;28;20123;-65
2023/08/31 08:57:55;;;;;;;5.03;1.45;;;16.80;99.90;;;;;;5042264;28;20155;-65
2023/08/31 09:00:20;;;;;;;5.80;1.27;;;16.80;99.90;;;;;;5028994;28;20067;-65
2023/08/31 09:02:46;;;;;;;7.05;1.15;;;16.80;99.90;;;;;;5046931;28;20099;-63
2023/08/31 09:05:12;;;;;;;6.95;1.40;;;16.80;99.90;;;;;;5044968;28;20489;-68
2023/08/31 09:07:38;;;;;;;5.05;1.00;;;16.90;99.90;;;;;;5033325;28;20431;-66
2023/08/31 09:10:05;;;;;;;5.88;0.90;;;16.90;99.90;;;;;;5043523;28;20507;-66
2023/08/31 09:12:31;;;;;;;5.85;1.20;;;16.80;99.90;;;;;;5044881;28;20045;-64
2023/08/31 09:14:58;;;;;;;4.90;1.02;;;16.70;99.90;;;;;;5046797;28;20037;-63
2023/08/31 09:17:25;;;;;;;5.30;1.10;;;16.70;99.90;;;;;;5044754;28;20052;-66
2023/08/31 09:20:03;;;;;;;6.13;1.10;;;16.80;99.90;;;;;;5028519;28;20124;-64
2023/08/31 09:22:29;;;;;;;4.53;0.85;;;16.90;99.90;;;;;;5044988;28;20048;-64
2023/08/31 09:24:54;;;;;;;6.45;0.85;;;17.10;99.90;;;;;;5039660;28;20052;-65
2023/08/31 09:27:22;;;;;;;5.70;0.95;;;17.10;99.90;;;;;;5044263;28;20127;-67
2023/08/31 09:29:48;;;;;;;2.00;0.50;;;17.10;99.90;;;;;;5044788;28;20080;-65
2023/08/31 09:32:20;;;;;;;4.78;1.00;;;16.80;99.90;;;;;;5044378;28;20472;-66
2023/08/31 09:34:45;;;;;;;6.93;1.30;;;16.50;99.90;;;;;;5035108;28;20029;-62
2023/08/31 09:37:11;;;;;;;8.38;1.17;;;16.10;99.90;;;;;;5039689;28;20049;-66
2023/08/31 09:39:39;;;;;;;3.42;0.80;;;15.70;99.90;;;;;;5043057;28;20041;-65
2023/08/31 09:42:04;;;;;;;2.78;0.73;;;15.30;99.90;;;;;;5044285;28;20052;-64
2023/08/31 09:44:30;;;;;;;2.38;0.60;;;15.00;99.90;;;;;;5043048;28;20048;-64
2023/08/31 09:46:57;;;;;;;5.13;0.90;;;14.70;99.90;;;;;;5030491;28;20563;-63
2023/08/31 09:49:26;;;;;;;3.97;0.90;;;14.50;99.90;;;;;;5051778;28;20134;-65
2023/08/31 09:51:52;;;;;;;5.47;0.90;;;14.30;99.90;;;;;;5036290;28;20033;-62
2023/08/31 09:54:21;;;;;;;3.05;1.00;;;14.30;99.90;;;;;;5062146;28;20076;-61
2023/08/31 09:56:48;;;;;;;3.10;0.90;;;14.30;99.90;;;;;;5031999;28;20149;-66
2023/08/31 09:59:15;;;;;;;2.72;0.80;;;14.40;99.90;;;;;;5033987;28;20412;-62
2023/08/31 10:01:42;;;;;;;4.05;0.90;;;14.60;99.90;;;;;;5041109;28;20555;-63
2023/08/31 10:04:08;;;;;;;3.95;0.93;;;14.70;99.90;;;;;;5038821;28;20058;-64
2023/08/31 10:06:39;;;;;;;3.53;1.00;;;14.80;99.90;;;;;;5043192;28;20511;-63
2023/08/31 10:09:05;;;;;;;2.70;0.90;;;14.70;99.90;;;;;;5022660;28;20049;-66
2023/08/31 10:11:32;;;;;;;3.95;0.95;;;14.70;99.90;;;;;;5025974;28;20124;-69
2023/08/31 10:13:59;;;;;;;5.45;1.00;;;14.80;99.90;;;;;;5067255;28;20049;-64
2023/08/31 10:16:27;;;;;;;2.75;1.00;;;14.90;99.90;;;;;;5031424;28;20041;-68
2023/08/31 10:18:54;;;;;;;4.13;1.20;;;15.10;99.90;;;;;;5048560;28;20500;-65
2023/08/31 10:21:20;;;;;;;10.68;1.35;;;15.30;99.90;;;;;;5030748;28;20077;-65
2023/08/31 10:23:49;;;;;;;8.00;1.15;;;15.30;99.90;;;;;;5044114;28;20090;-67
2023/08/31 10:26:33;;;;;;;6.68;1.23;;;15.30;99.90;;;;;;5032797;28;20087;-69
2023/08/31 10:29:00;;;;;;;4.70;1.15;;;15.10;99.90;;;;;;5032068;28;20059;-63
2023/08/31 10:31:33;;;;;;;4.80;1.08;;;14.90;99.90;;;;;;5029310;28;20233;-64
2023/08/31 10:34:04;;;;;;;3.80;0.97;;;14.70;99.90;;;;;;5070124;28;20037;-66
2023/08/31 10:36:50;;;;;;;2.25;0.80;;;14.50;99.90;;;;;;5027327;28;20431;-66
2023/08/31 10:39:17;;;;;;;4.65;1.02;;;14.50;99.90;;;;;;5033806;28;20045;-64
2023/08/31 10:41:54;;;;;;;4.05;1.00;;;14.40;99.90;;;;;;5032115;28;20048;-64
2023/08/31 10:44:22;;;;;;;4.32;0.90;;;14.30;99.90;;;;;;5057590;28;20052;-63
2023/08/31 10:46:49;;;;;;;5.13;0.90;;;14.30;99.90;;;;;;5031098;28;20079;-64
2023/08/31 10:49:20;;;;;;;4.13;1.10;;;14.30;99.90;;;;;;5045764;28;20056;-63
2023/08/31 10:51:48;;;;;;;2.67;0.93;;;14.30;99.90;;;;;;5015400;28;20356;-64
2023/08/31 10:54:30;;;;;;;3.47;1.00;;;14.50;99.90;;;;;;5043068;28;20393;-65
2023/08/31 10:57:08;;;;;;;3.10;1.00;;;14.70;99.90;;;;;;5010113;28;20064;-65
2023/08/31 10:59:44;;;;;;;3.80;1.08;;;15.00;99.90;;;;;;5041454;28;20574;-64
2023/08/31 11:02:09;;;;;;;4.10;1.08;;;15.20;99.90;;;;;;5025156;28;20099;-64
2023/08/31 11:04:56;;;;;;;5.28;1.40;;;15.40;99.90;;;;;;5068407;28;20575;-65
2023/08/31 11:07:29;;;;;;;6.75;1.17;;;15.70;99.90;;;;;;5048888;28;20123;-64
2023/08/31 11:10:23;;;;;;;4.68;1.30;;;15.90;99.90;;;;;;5043799;28;20045;-66
2023/08/31 11:12:53;;;;;;;5.30;1.17;;;16.00;99.90;;;;;;5039511;28;20041;-62
2023/08/31 11:15:21;;;;;;;8.95;1.42;;;15.90;99.90;;;;;;5036912;28;20040;-66
2023/08/31 11:17:49;;;;;;;4.72;1.30;;;15.90;99.90;;;;;;5015076;28;20415;-66
2023/08/31 11:20:17;;;;;;;6.00;1.27;;;15.80;99.90;;;;;;5034745;28;20082;-65
2023/08/31 11:22:45;;;;;;;7.22;1.30;;;15.70;99.90;;;;;;5038917;28;20065;-66
2023/08/31 11:25:12;;;;;;;8.35;1.30;;;15.50;99.90;;;;;;5071599;28;20388;-66
2023/08/31 11:27:38;;;;;;;6.18;1.65;;;15.40;99.90;;;;;;5035084;28;20087;-66
2023/08/31 11:30:15;;;;;;;8.85;1.50;;;15.30;99.90;;;;;;5067052;28;20081;-67
2023/08/31 11:32:53;;;;;;;7.32;1.65;;;15.30;99.90;;;;;;5037794;28;20044;-65
2023/08/31 11:35:21;;;;;;;5.82;1.35;;;15.20;99.90;;;;;;5077866;28;20052;-65
2023/08/31 11:37:52;;;;;;;5.47;1.40;;;15.20;99.90;;;;;;5049578;28;20049;-65
2023/08/31 11:40:18;;;;;;;6.35;1.10;;;15.30;99.90;;;;;;5048717;28;20044;-61
2023/08/31 11:42:44;;;;;;;7.40;1.45;;;15.50;99.90;;;;;;5050991;28;20061;-62
2023/08/31 11:45:12;;;;;;;3.65;1.08;;;15.70;99.90;;;;;;5051595;28;20072;-62
2023/08/31 11:47:39;;;;;;;5.55;1.00;;;15.70;99.90;;;;;;5049699;28;20163;-65
2023/08/31 11:50:06;;;;;;;4.25;1.35;;;15.80;99.90;;;;;;5051466;28;20049;-62
2023/08/31 11:52:32;;;;;;;3.45;1.10;;;15.80;99.90;;;;;;5049981;28;20043;-64
2023/08/31 11:54:57;;;;;;;5.25;1.40;;;15.70;99.90;;;;;;5049577;28;20041;-66
2023/08/31 11:57:28;;;;;;;4.45;0.98;;;15.70;99.90;;;;;;5066253;28;20051;-66
2023/08/31 11:59:56;;;;;;;7.72;1.20;;;15.70;99.90;;;;;;5051176;28;20214;-69
2023/08/31 12:02:21;;;;;;;5.13;1.17;;;15.70;99.90;;;;;;5064120;28;20044;-63
2023/08/31 12:04:48;;;;;;;5.78;1.40;;;15.60;99.90;;;;;;5070030;28;20070;-65
2023/08/31 12:07:18;;;;;;;8.48;1.90;;;15.60;99.90;;;;;;5062121;28;20141;-69
2023/08/31 12:09:45;;;;;;;5.80;1.40;;;15.60;99.90;;;;;;5069523;28;20044;-65
2023/08/31 12:12:13;;;;;;;4.75;1.40;;;15.70;99.90;;;;;;5071145;28;20043;-64
2023/08/31 12:14:39;;;;;;;6.28;1.70;;;15.80;99.90;;;;;;5068178;28;20040;-62
2023/08/31 12:17:07;;;;;;;4.20;1.20;;;15.90;99.90;;;;;;5071550;28;20068;-62
2023/08/31 12:19:35;;;;;;;7.20;1.63;;;16.00;99.90;;;;;;5069190;28;20123;-62
2023/08/31 12:22:01;;;;;;;4.93;1.48;;;16.00;99.90;;;;;;5064129;28;20047;-61
2023/08/31 12:24:26;;;;;;;4.40;1.05;;;16.00;99.90;;;;;;5069918;28;20570;-66
2023/08/31 12:26:58;;;;;;;9.05;2.53;;;16.00;99.90;;;;;;5069039;28;20177;-63
2023/08/31 12:29:24;;;;;;;7.88;1.40;;;15.80;99.90;;;;;;5049745;28;20547;-66
2023/08/31 12:31:53;;;;;;;7.50;1.30;;;15.60;99.90;;;;;;5033501;28;20051;-65
2023/08/31 12:34:18;;;;;;;6.63;1.60;;;15.40;99.90;;;;;;5049485;28;20044;-62
2023/08/31 12:36:44;;;;;;;7.68;1.70;;;15.30;99.90;;;;;;5051131;28;20048;-65
2023/08/31 12:39:15;;;;;;;7.00;1.10;;;15.20;99.90;;;;;;5049861;28;20044;-65
2023/08/31 12:41:41;;;;;;;4.65;1.13;;;15.20;99.90;;;;;;5048785;28;20080;-65
2023/08/31 12:44:07;;;;;;;7.18;1.10;;;15.30;99.90;;;;;;5048820;28;20069;-64
2023/08/31 12:46:34;;;;;;;5.75;1.20;;;15.40;99.90;;;;;;5084493;28;20036;-63